createdAt,value
2022-11-01T00:02:00.006Z,101073.97
2022-11-01T00:04:26.851Z,101079.19
2022-11-01T00:06:53.794Z,101074.22
2022-11-01T00:09:20.656Z,101074.34
2022-11-01T00:11:47.621Z,101067.84
2022-11-01T00:14:16.301Z,101067.72
2022-11-01T00:16:43.372Z,101065.44
2022-11-01T00:19:10.901Z,101062.00
2022-11-01T00:21:38.148Z,101069.72
2022-11-01T00:24:05.368Z,101065.38
2022-11-01T00:26:32.798Z,101064.44
2022-11-01T00:28:59.599Z,101063.50
2022-11-01T00:31:26.741Z,101056.34
2022-11-01T00:33:53.484Z,101064.59
2022-11-01T00:36:20.480Z,101057.66
2022-11-01T00:38:53.526Z,101054.91
2022-11-01T00:41:23.296Z,101055.59
2022-11-01T00:43:50.024Z,101049.63
2022-11-01T00:46:17.701Z,101059.06
2022-11-01T00:48:44.651Z,101054.56
2022-11-01T00:51:11.858Z,101040.53
2022-11-01T00:53:38.655Z,101045.81
2022-11-01T00:56:07.109Z,101041.63
2022-11-01T00:58:35.491Z,101048.31
2022-11-01T01:01:02.595Z,101054.72
2022-11-01T01:03:29.521Z,101043.16
2022-11-01T01:05:56.517Z,101033.91
2022-11-01T01:08:24.059Z,101030.44
2022-11-01T01:10:51.735Z,101031.91
2022-11-01T01:13:18.975Z,101031.06
2022-11-01T01:15:46.740Z,101029.19
2022-11-01T01:18:13.523Z,101017.97
2022-11-01T01:20:40.467Z,101022.22
2022-11-01T01:23:07.422Z,101013.59
2022-11-01T01:25:34.399Z,101010.25
2022-11-01T01:28:01.486Z,101003.66
2022-11-01T01:30:28.741Z,101003.97
2022-11-01T01:32:55.484Z,101001.88
2022-11-01T01:35:22.446Z,101008.41
2022-11-01T01:37:49.429Z,101012.81
2022-11-01T01:40:16.885Z,101016.31
2022-11-01T01:42:43.857Z,101013.06
2022-11-01T01:45:10.818Z,101007.78
2022-11-01T01:47:40.371Z,101011.97
2022-11-01T01:50:07.486Z,101007.63
2022-11-01T01:52:40.824Z,101009.63
2022-11-01T01:55:11.097Z,101011.34
2022-11-01T01:57:40.733Z,101011.19
2022-11-01T02:00:08.566Z,101004.13
2022-11-01T02:02:35.377Z,100997.06
2022-11-01T02:05:09.600Z,100988.53
2022-11-01T02:07:36.325Z,100997.84
2022-11-01T02:10:03.917Z,100988.69
2022-11-01T02:12:35.601Z,100996.69
2022-11-01T02:15:05.011Z,100996.59
2022-11-01T02:17:41.230Z,100990.47
2022-11-01T02:20:26.738Z,100990.78
2022-11-01T02:23:36.527Z,100989.47
2022-11-01T02:26:22.036Z,100995.03
2022-11-01T02:29:17.854Z,100994.03
2022-11-01T02:32:10.261Z,100994.19
2022-11-01T02:34:39.590Z,100988.59
2022-11-01T02:37:27.175Z,100977.41
2022-11-01T02:40:00.813Z,100982.69
2022-11-01T02:42:33.395Z,100981.53
2022-11-01T02:45:08.993Z,100967.59
2022-11-01T02:47:38.610Z,100965.03
2022-11-01T02:50:09.602Z,100958.03
2022-11-01T02:52:40.777Z,100962.94
2022-11-01T02:55:29.917Z,100963.16
2022-11-01T02:58:19.400Z,100952.75
2022-11-01T03:00:46.358Z,100965.88
2022-11-01T03:03:19.460Z,100968.66
2022-11-01T03:06:01.229Z,100972.00
2022-11-01T03:08:45.008Z,100973.00
2022-11-01T03:11:22.291Z,100981.84
2022-11-01T03:13:53.169Z,100986.75
2022-11-01T03:16:31.999Z,100979.94
2022-11-01T03:19:17.006Z,100979.22
2022-11-01T03:21:58.851Z,100971.28
2022-11-01T03:24:38.773Z,100975.50
2022-11-01T03:27:10.342Z,100975.63
2022-11-01T03:29:39.736Z,100979.66
2022-11-01T03:32:08.411Z,100980.44
2022-11-01T03:34:39.084Z,100980.53
2022-11-01T03:37:11.295Z,100981.44
2022-11-01T03:39:44.488Z,100983.34
2022-11-01T03:42:19.381Z,100984.84
2022-11-01T03:45:03.030Z,100983.25
2022-11-01T03:47:30.023Z,100983.84
2022-11-01T03:50:18.021Z,100986.47
2022-11-01T03:52:45.296Z,100969.19
2022-11-01T03:55:19.415Z,100978.91
2022-11-01T03:57:57.657Z,100978.16
2022-11-01T04:00:27.389Z,100973.53
2022-11-01T04:02:55.185Z,100970.75
2022-11-01T04:05:23.778Z,100971.00
2022-11-01T04:07:54.385Z,100959.59
2022-11-01T04:10:23.005Z,100954.41
2022-11-01T04:12:50.907Z,100952.53
2022-11-01T04:15:38.912Z,100957.91
2022-11-01T04:18:37.729Z,100943.19
2022-11-01T04:21:11.246Z,100949.59
2022-11-01T04:23:38.503Z,100936.31
2022-11-01T04:26:06.438Z,100940.03
2022-11-01T04:28:33.301Z,100944.72
2022-11-01T04:31:00.230Z,100956.38
2022-11-01T04:33:26.987Z,100952.16
2022-11-01T04:35:53.910Z,100955.47
2022-11-01T04:38:20.707Z,100961.38
2022-11-01T04:40:47.765Z,100950.66
2022-11-01T04:43:14.481Z,100955.34
2022-11-01T04:45:41.677Z,100952.63
2022-11-01T04:48:16.959Z,100948.44
2022-11-01T04:50:45.535Z,100955.47
2022-11-01T04:53:12.511Z,100958.13
2022-11-01T04:55:39.608Z,100958.44
2022-11-01T04:58:06.776Z,100948.59
2022-11-01T05:00:34.576Z,100959.00
2022-11-01T05:03:03.704Z,100954.03
2022-11-01T05:05:31.487Z,100955.72
2022-11-01T05:08:03.280Z,100953.84
2022-11-01T05:10:31.131Z,100945.19
2022-11-01T05:12:57.875Z,100949.53
2022-11-01T05:15:24.917Z,100948.09
2022-11-01T05:17:51.693Z,100947.25
2022-11-01T05:20:19.036Z,100947.25
2022-11-01T05:22:45.854Z,100942.16
2022-11-01T05:25:12.835Z,100947.94
2022-11-01T05:27:39.565Z,100939.91
2022-11-01T05:30:07.933Z,100935.22
2022-11-01T05:32:35.682Z,100931.66
2022-11-01T05:35:02.757Z,100937.47
2022-11-01T05:37:29.521Z,100946.81
2022-11-01T05:39:56.536Z,100942.75
2022-11-01T05:42:23.507Z,100942.06
2022-11-01T05:44:50.455Z,100944.06
2022-11-01T05:47:17.690Z,100943.13
2022-11-01T05:49:44.749Z,100940.66
2022-11-01T05:52:11.497Z,100941.34
2022-11-01T05:54:38.589Z,100951.03
2022-11-01T05:57:06.353Z,100942.44
2022-11-01T05:59:33.262Z,100953.00
2022-11-01T06:02:00.060Z,100945.06
2022-11-01T06:04:27.055Z,100948.56
2022-11-01T06:06:53.833Z,100955.63
2022-11-01T06:09:20.805Z,100958.19
2022-11-01T06:11:47.587Z,100959.88
2022-11-01T06:14:14.529Z,100962.44
2022-11-01T06:16:41.306Z,100961.50
2022-11-01T06:19:09.530Z,100966.00
2022-11-01T06:21:36.263Z,100966.09
2022-11-01T06:24:03.298Z,100967.00
2022-11-01T06:26:30.356Z,100969.66
2022-11-01T06:29:00.769Z,100965.84
2022-11-01T06:31:27.514Z,100964.38
2022-11-01T06:33:54.638Z,100966.41
2022-11-01T06:36:22.384Z,100970.69
2022-11-01T06:38:50.033Z,100964.94
2022-11-01T06:41:16.786Z,100969.50
2022-11-01T06:43:43.767Z,100974.59
2022-11-01T06:46:10.495Z,100968.63
2022-11-01T06:48:37.486Z,100969.00
2022-11-01T06:51:04.684Z,100971.91
2022-11-01T06:53:31.919Z,100970.25
2022-11-01T06:55:59.772Z,100972.78
2022-11-01T06:58:27.349Z,100975.72
2022-11-01T07:00:54.551Z,100977.59
2022-11-01T07:03:21.576Z,100983.88
2022-11-01T07:05:50.098Z,100984.72
2022-11-01T07:08:17.422Z,100990.97
2022-11-01T07:10:44.445Z,100984.72
2022-11-01T07:13:13.654Z,100975.66
2022-11-01T07:15:41.193Z,100989.22
2022-11-01T07:18:08.785Z,100989.84
2022-11-01T07:20:41.584Z,100988.22
2022-11-01T07:23:14.436Z,100991.06
2022-11-01T07:25:41.439Z,100991.78
2022-11-01T07:28:08.922Z,100985.66
2022-11-01T07:30:36.010Z,100990.22
2022-11-01T07:33:04.882Z,100985.94
2022-11-01T07:35:32.222Z,100989.09
2022-11-01T07:38:02.738Z,100989.22
2022-11-01T07:40:31.955Z,100990.28
2022-11-01T07:43:00.327Z,100993.63
2022-11-01T07:45:29.006Z,100995.28
2022-11-01T07:48:04.032Z,100994.19
2022-11-01T07:50:33.313Z,101000.09
2022-11-01T07:53:09.173Z,100991.69
2022-11-01T07:55:36.273Z,100995.28
2022-11-01T07:58:04.807Z,100993.50
2022-11-01T08:00:32.054Z,100992.94
2022-11-01T08:03:12.725Z,100983.69
2022-11-01T08:05:40.186Z,100981.59
2022-11-01T08:08:07.621Z,100980.75
2022-11-01T08:10:35.946Z,100986.63
2022-11-01T08:13:08.402Z,100984.81
2022-11-01T08:15:35.609Z,100981.44
2022-11-01T08:18:03.107Z,100977.38
2022-11-01T08:20:30.410Z,100974.75
2022-11-01T08:22:57.723Z,100977.22
2022-11-01T08:25:24.876Z,100981.06
2022-11-01T08:27:52.257Z,100974.94
2022-11-01T08:30:20.405Z,100975.81
2022-11-01T08:32:47.370Z,100973.63
2022-11-01T08:35:14.811Z,100972.06
2022-11-01T08:37:51.227Z,100982.63
2022-11-01T08:40:20.257Z,100983.34
2022-11-01T08:42:48.012Z,100989.75
2022-11-01T08:45:15.545Z,100993.81
2022-11-01T08:47:43.090Z,100983.94
2022-11-01T08:50:20.924Z,100979.44
2022-11-01T08:52:48.041Z,100978.72
2022-11-01T08:55:14.832Z,100974.09
2022-11-01T08:57:41.780Z,100975.06
2022-11-01T09:00:10.276Z,100976.66
2022-11-01T09:02:37.581Z,100982.56
2022-11-01T09:05:06.669Z,100976.47
2022-11-01T09:07:35.090Z,100977.81
2022-11-01T09:10:01.933Z,100966.03
2022-11-01T09:12:29.507Z,100967.34
2022-11-01T09:14:56.393Z,100971.47
2022-11-01T09:17:23.395Z,100967.88
2022-11-01T09:19:50.447Z,100975.59
2022-11-01T09:22:17.508Z,100971.03
2022-11-01T09:24:44.342Z,100963.03
2022-11-01T09:27:11.502Z,100967.81
2022-11-01T09:29:38.459Z,100967.75
2022-11-01T09:32:06.824Z,100968.94
2022-11-01T09:34:34.219Z,100966.88
2022-11-01T09:37:01.597Z,100958.03
2022-11-01T09:39:28.365Z,100963.41
2022-11-01T09:42:05.867Z,100967.91
2022-11-01T09:44:37.158Z,100972.34
2022-11-01T09:47:22.944Z,100971.41
2022-11-01T09:49:57.165Z,100960.53
2022-11-01T09:52:25.516Z,100957.19
2022-11-01T09:54:52.458Z,100949.34
2022-11-01T09:57:30.151Z,100954.53
2022-11-01T10:00:20.633Z,100951.75
2022-11-01T10:03:16.595Z,100952.34
2022-11-01T10:05:54.821Z,100955.53
2022-11-01T10:08:30.724Z,100959.06
2022-11-01T10:11:03.210Z,100955.63
2022-11-01T10:13:32.327Z,100948.41
2022-11-01T10:16:17.018Z,100942.09
2022-11-01T10:19:01.483Z,100942.03
2022-11-01T10:21:34.738Z,100946.31
2022-11-01T10:24:07.278Z,100951.66
2022-11-01T10:26:34.638Z,100938.22
2022-11-01T10:29:24.511Z,100935.53
2022-11-01T10:31:54.318Z,100928.16
2022-11-01T10:34:30.819Z,100933.56
2022-11-01T10:37:19.354Z,100928.53
2022-11-01T10:39:59.143Z,100932.13
2022-11-01T10:42:29.935Z,100935.66
2022-11-01T10:45:01.544Z,100940.72
2022-11-01T10:47:31.922Z,100940.59
2022-11-01T10:50:14.474Z,100939.47
2022-11-01T10:53:00.042Z,100938.94
2022-11-01T10:55:37.553Z,100933.19
2022-11-01T10:58:15.954Z,100929.31
2022-11-01T11:00:44.659Z,100931.88
2022-11-01T11:03:26.226Z,100928.22
2022-11-01T11:05:55.221Z,100931.72
2022-11-01T11:08:24.441Z,100924.03
2022-11-01T11:10:51.740Z,100935.03
2022-11-01T11:13:25.204Z,100926.97
2022-11-01T11:15:56.059Z,100924.47
2022-11-01T11:18:29.383Z,100929.84
2022-11-01T11:21:04.415Z,100927.13
2022-11-01T11:23:34.600Z,100927.22
2022-11-01T11:26:06.815Z,100921.00
2022-11-01T11:28:42.447Z,100925.78
2022-11-01T11:31:13.521Z,100916.16
2022-11-01T11:33:50.316Z,100904.81
2022-11-01T11:36:18.517Z,100902.72
2022-11-01T11:38:50.484Z,100910.03
2022-11-01T11:41:31.820Z,100910.88
2022-11-01T11:43:59.476Z,100902.00
2022-11-01T11:46:26.842Z,100903.81
2022-11-01T11:49:07.287Z,100901.78
2022-11-01T11:51:38.319Z,100903.25
2022-11-01T11:54:37.660Z,100897.47
2022-11-01T11:57:09.167Z,100892.34
2022-11-01T11:59:36.053Z,100884.97
2022-11-01T12:02:07.368Z,100886.28
2022-11-01T12:04:44.956Z,100884.97
2022-11-01T12:07:27.931Z,100890.38
2022-11-01T12:09:56.125Z,100885.94
2022-11-01T12:12:24.659Z,100892.03
2022-11-01T12:14:51.740Z,100887.66
2022-11-01T12:17:31.332Z,100890.06
2022-11-01T12:20:13.133Z,100883.41
2022-11-01T12:22:45.558Z,100881.03
2022-11-01T12:25:22.106Z,100881.97
2022-11-01T12:27:55.066Z,100876.00
2022-11-01T12:30:24.957Z,100874.41
2022-11-01T12:32:58.177Z,100872.00
2022-11-01T12:35:34.485Z,100863.50
2022-11-01T12:38:13.715Z,100863.31
2022-11-01T12:40:44.358Z,100859.91
2022-11-01T12:43:29.967Z,100854.28
2022-11-01T12:46:16.131Z,100854.72
2022-11-01T12:48:56.972Z,100848.41
2022-11-01T12:51:44.277Z,100846.25
2022-11-01T12:54:26.903Z,100840.53
2022-11-01T12:56:55.893Z,100845.72
2022-11-01T12:59:35.824Z,100842.59
2022-11-01T13:02:08.501Z,100844.03
2022-11-01T13:04:41.592Z,100841.75
2022-11-01T13:07:25.018Z,100843.78
2022-11-01T13:10:05.311Z,100846.34
2022-11-01T13:12:50.069Z,100846.34
2022-11-01T13:15:36.869Z,100847.47
2022-11-01T13:18:28.355Z,100843.94
2022-11-01T13:21:05.129Z,100846.44
2022-11-01T13:23:59.126Z,100848.31
2022-11-01T13:26:43.075Z,100842.25
2022-11-01T13:31:57.324Z,100835.75
2022-11-01T13:34:49.689Z,100826.81
2022-11-01T13:37:19.453Z,100823.25
2022-11-01T13:40:24.563Z,100830.72
2022-11-01T13:43:11.152Z,100828.25
2022-11-01T13:46:05.370Z,100829.28
2022-11-01T13:48:47.871Z,100826.66
2022-11-01T13:51:32.509Z,100832.97
2022-11-01T13:54:11.656Z,100829.56
2022-11-01T13:56:57.471Z,100828.47
2022-11-01T13:59:58.822Z,100836.44
2022-11-01T14:02:25.574Z,100827.75
2022-11-01T14:04:59.296Z,100828.19
2022-11-01T14:07:31.452Z,100821.78
2022-11-01T14:09:58.411Z,100829.03
2022-11-01T14:12:44.726Z,100831.66
2022-11-01T14:15:22.848Z,100821.78
2022-11-01T14:17:52.768Z,100818.56
2022-11-01T14:20:25.665Z,100820.59
2022-11-01T14:22:53.726Z,100823.75
2022-11-01T14:25:23.517Z,100819.00
2022-11-01T14:28:11.472Z,100825.97
2022-11-01T14:30:42.329Z,100831.16
2022-11-01T14:33:15.117Z,100840.88
2022-11-01T14:35:47.146Z,100827.00
2022-11-01T14:38:20.211Z,100827.66
2022-11-01T14:40:56.848Z,100829.56
2022-11-01T14:43:34.741Z,100828.81
2022-11-01T14:46:04.156Z,100818.38
2022-11-01T14:48:37.923Z,100814.81
2022-11-01T14:51:04.799Z,100820.78
2022-11-01T14:53:32.826Z,100828.63
2022-11-01T14:56:18.487Z,100827.66
2022-11-01T14:58:46.314Z,100823.34
2022-11-01T15:01:19.968Z,100826.31
2022-11-01T15:03:54.671Z,100826.59
2022-11-01T15:06:24.765Z,100832.53
2022-11-01T15:08:51.626Z,100830.53
2022-11-01T15:11:19.357Z,100827.59
2022-11-01T15:13:46.702Z,100837.22
2022-11-01T15:16:19.405Z,100837.81
2022-11-01T15:18:51.170Z,100843.13
2022-11-01T15:21:23.073Z,100850.78
2022-11-01T15:23:54.963Z,100849.09
2022-11-01T15:26:25.524Z,100847.38
2022-11-01T15:29:20.036Z,100845.56
2022-11-01T15:31:57.052Z,100850.72
2022-11-01T15:34:31.282Z,100846.28
2022-11-01T15:36:59.917Z,100841.09
2022-11-01T15:39:31.469Z,100856.09
2022-11-01T15:41:58.442Z,100849.16
2022-11-01T15:44:30.199Z,100843.97
2022-11-01T15:47:02.588Z,100835.09
2022-11-01T15:49:35.045Z,100835.81
2022-11-01T15:52:30.377Z,100843.88
2022-11-01T15:55:26.319Z,100839.53
2022-11-01T15:57:55.928Z,100844.81
2022-11-01T16:00:25.315Z,100840.47
2022-11-01T16:02:57.915Z,100846.94
2022-11-01T16:05:29.937Z,100849.69
2022-11-01T16:07:57.190Z,100855.06
2022-11-01T16:10:27.139Z,100863.03
2022-11-01T16:12:55.523Z,100855.47
2022-11-01T16:15:33.749Z,100861.34
2022-11-01T16:18:13.836Z,100849.25
2022-11-01T16:20:41.172Z,100849.25
2022-11-01T16:23:09.321Z,100847.78
2022-11-01T16:25:37.850Z,100852.03
2022-11-01T16:28:10.744Z,100848.22
2022-11-01T16:30:54.054Z,100848.56
2022-11-01T16:33:42.018Z,100841.06
2022-11-01T16:36:20.688Z,100843.47
2022-11-01T16:38:52.266Z,100850.78
2022-11-01T16:41:22.401Z,100851.47
2022-11-01T16:43:54.701Z,100848.50
2022-11-01T16:46:22.969Z,100852.00
2022-11-01T16:48:56.401Z,100848.81
2022-11-01T16:51:28.086Z,100845.91
2022-11-01T16:53:56.437Z,100854.78
2022-11-01T16:56:38.135Z,100858.19
2022-11-01T16:59:23.675Z,100847.88
2022-11-01T17:01:52.261Z,100840.06
2022-11-01T17:04:19.610Z,100849.44
2022-11-01T17:06:46.389Z,100854.88
2022-11-01T17:09:15.979Z,100858.47
2022-11-01T17:11:49.550Z,100862.78
2022-11-01T17:14:18.969Z,100865.28
2022-11-01T17:16:47.669Z,100861.00
2022-11-01T17:19:31.246Z,100861.94
2022-11-01T17:22:01.211Z,100861.75
2022-11-01T17:24:29.645Z,100869.88
2022-11-01T17:27:00.710Z,100868.50
2022-11-01T17:29:28.102Z,100870.56
2022-11-01T17:31:54.989Z,100867.97
2022-11-01T17:34:22.383Z,100862.66
2022-11-01T17:36:50.294Z,100867.97
2022-11-01T17:39:17.700Z,100867.75
2022-11-01T17:41:44.471Z,100857.19
2022-11-01T17:44:12.158Z,100859.50
2022-11-01T17:46:39.768Z,100851.66
2022-11-01T17:49:06.922Z,100855.06
2022-11-01T17:51:34.326Z,100863.91
2022-11-01T17:54:01.448Z,100867.50
2022-11-01T17:56:28.274Z,100868.59
2022-11-01T17:58:55.349Z,100861.28
2022-11-01T18:01:22.737Z,100859.56
2022-11-01T18:03:49.939Z,100852.81
2022-11-01T18:06:17.138Z,100857.06
2022-11-01T18:08:47.028Z,100845.94
2022-11-01T18:11:30.913Z,100848.59
2022-11-01T18:14:02.686Z,100845.09
2022-11-01T18:16:52.173Z,100843.28
2022-11-01T18:19:31.177Z,100840.47
2022-11-01T18:22:06.159Z,100844.81
2022-11-01T18:24:46.165Z,100836.22
2022-11-01T18:27:22.781Z,100827.34
2022-11-01T18:29:53.501Z,100842.59
2022-11-01T18:32:35.154Z,100848.50
2022-11-01T18:35:12.436Z,100847.44
2022-11-01T18:37:54.375Z,100841.31
2022-11-01T18:40:27.736Z,100840.72
2022-11-01T18:42:55.065Z,100849.75
2022-11-01T18:45:30.394Z,100849.16
2022-11-01T18:48:12.918Z,100852.16
2022-11-01T18:50:39.932Z,100856.16
2022-11-01T18:53:12.930Z,100854.63
2022-11-01T18:55:40.220Z,100846.69
2022-11-01T18:58:28.875Z,100846.94
2022-11-01T19:01:11.830Z,100855.56
2022-11-01T19:03:44.554Z,100853.59
2022-11-01T19:06:20.601Z,100851.63
2022-11-01T19:08:59.550Z,100850.28
2022-11-01T19:11:28.418Z,100850.28
2022-11-01T19:13:59.450Z,100860.09
2022-11-01T19:16:26.497Z,100856.50
2022-11-01T19:18:53.364Z,100856.75
2022-11-01T19:21:21.963Z,100863.13
2022-11-01T19:23:50.003Z,100858.63
2022-11-01T19:26:33.853Z,100858.44
2022-11-01T19:29:00.797Z,100863.50
2022-11-01T19:31:33.039Z,100854.72
2022-11-01T19:34:03.821Z,100849.53
2022-11-01T19:36:44.428Z,100839.97
2022-11-01T19:39:20.208Z,100841.22
2022-11-01T19:41:47.773Z,100844.25
2022-11-01T19:44:19.984Z,100840.06
2022-11-01T19:46:48.197Z,100841.00
2022-11-01T19:49:20.491Z,100849.06
2022-11-01T19:51:54.262Z,100846.09
2022-11-01T19:54:21.040Z,100850.38
2022-11-01T19:56:47.963Z,100860.16
2022-11-01T19:59:15.797Z,100861.69
2022-11-01T20:01:46.073Z,100865.28
2022-11-01T20:04:12.904Z,100865.84
2022-11-01T20:06:48.534Z,100858.22
2022-11-01T20:09:21.051Z,100871.22
2022-11-01T20:11:47.938Z,100872.00
2022-11-01T20:14:17.090Z,100871.16
2022-11-01T20:16:44.351Z,100873.03
2022-11-01T20:19:13.306Z,100872.78
2022-11-01T20:21:44.435Z,100869.34
2022-11-01T20:24:11.601Z,100868.78
2022-11-01T20:26:38.850Z,100869.28
2022-11-01T20:29:05.771Z,100869.63
2022-11-01T20:31:32.667Z,100867.97
2022-11-01T20:34:00.150Z,100871.22
2022-11-01T20:36:27.545Z,100876.19
2022-11-01T20:38:54.625Z,100874.44
2022-11-01T20:41:22.470Z,100869.09
2022-11-01T20:43:49.880Z,100871.81
2022-11-01T20:46:17.001Z,100879.72
2022-11-01T20:48:45.330Z,100877.88
2022-11-01T20:51:15.164Z,100879.06
2022-11-01T20:53:42.079Z,100867.66
2022-11-01T20:56:09.324Z,100874.81
2022-11-01T20:58:40.483Z,100871.66
2022-11-01T21:01:18.677Z,100870.72
2022-11-01T21:03:45.990Z,100863.75
2022-11-01T21:06:18.255Z,100866.94
2022-11-01T21:08:47.223Z,100863.81
2022-11-01T21:11:20.983Z,100852.09
2022-11-01T21:13:48.946Z,100861.94
2022-11-01T21:16:25.520Z,100869.97
2022-11-01T21:18:54.653Z,100874.97
2022-11-01T21:21:32.375Z,100865.44
2022-11-01T21:24:00.267Z,100875.25
2022-11-01T21:26:32.783Z,100875.34
2022-11-01T21:29:15.230Z,100875.06
2022-11-01T21:31:42.726Z,100876.09
2022-11-01T21:34:10.131Z,100876.00
2022-11-01T21:36:47.142Z,100883.94
2022-11-01T21:39:15.137Z,100875.25
2022-11-01T21:41:46.805Z,100871.06
2022-11-01T21:44:35.582Z,100859.72
2022-11-01T21:47:14.104Z,100859.97
2022-11-01T21:49:41.112Z,100849.69
2022-11-01T21:54:42.688Z,100855.19
2022-11-01T21:57:11.146Z,100859.94
2022-11-01T21:59:38.706Z,100859.19
2022-11-01T22:02:07.092Z,100861.13
2022-11-01T22:04:34.138Z,100864.03
2022-11-01T22:07:03.797Z,100871.06
2022-11-01T22:09:31.917Z,100875.50
2022-11-01T22:11:59.256Z,100876.28
2022-11-01T22:14:26.222Z,100869.97
2022-11-01T22:16:52.990Z,100875.25
2022-11-01T22:19:20.086Z,100876.03
2022-11-01T22:21:46.915Z,100868.09
2022-11-01T22:24:13.922Z,100863.84
2022-11-01T22:26:40.691Z,100881.41
2022-11-01T22:29:07.667Z,100883.09
2022-11-01T22:31:34.410Z,100871.00
2022-11-01T22:34:01.830Z,100879.00
2022-11-01T22:36:31.339Z,100879.41
2022-11-01T22:38:59.990Z,100884.44
2022-11-01T22:41:34.222Z,100875.59
2022-11-01T22:44:10.033Z,100873.78
2022-11-01T22:46:56.887Z,100873.19
2022-11-01T22:49:31.987Z,100878.22
2022-11-01T22:52:01.937Z,100875.06
2022-11-01T22:54:34.453Z,100880.34
2022-11-01T22:57:10.525Z,100879.72
2022-11-01T22:59:44.513Z,100886.19
2022-11-01T23:02:28.554Z,100886.19
2022-11-01T23:05:07.606Z,100888.88
2022-11-01T23:07:38.766Z,100875.00
2022-11-01T23:10:21.444Z,100876.81
2022-11-01T23:13:09.614Z,100873.75
2022-11-01T23:15:36.939Z,100869.69
2022-11-01T23:18:28.952Z,100868.97
2022-11-01T23:21:22.406Z,100866.06
2022-11-01T23:23:49.829Z,100865.50
2022-11-01T23:26:18.571Z,100877.59
2022-11-01T23:28:48.636Z,100885.69
2022-11-01T23:31:16.711Z,100888.66
2022-11-01T23:33:45.994Z,100885.78
2022-11-01T23:36:36.679Z,100887.59
2022-11-01T23:39:09.040Z,100886.47
2022-11-01T23:41:42.958Z,100890.19
2022-11-01T23:44:31.064Z,100902.75
2022-11-01T23:47:09.715Z,100898.53
2022-11-01T23:49:36.490Z,100904.38
2022-11-01T23:52:22.411Z,100905.22
2022-11-01T23:54:49.302Z,100910.28
2022-11-01T23:57:21.452Z,100905.16
2022-11-01T23:59:49.895Z,100909.59
